Triathlon du Salagou - 11/06/2016

Cross

507 participants classés


Retour au Sommaire - Signaler une erreur - Faire défiler





1 2 3 4 5 6 7 8 9 10 11 /fin /tout

page suivante ->

Pl Do. Nom - Surname Prénom - Name S-Cat /cat Club - Team TEMPS - Time /sx Trans1 Tps1 Vit1 P1 Trans2 Tps2 Vit2 P2 Tps3 Vit3 P3
1 96 BOURDON CYRIL MS1 1 ROC EVASION 1:33:20.34 1 01:22.8 0:11:23.1 2,6 21 00:58.0 0:56:17.6 24,5 3 0:22:54.6 14,4 3
2 16 VIGUIER PIERRE-LAURENT MS4 1 CA BALMA 1:35:40.19 2 01:12.2 0:10:55.8 2,7 12 00:49.7 1:02:10.9 22,2 11 0:20:31.3 16,1 1
3 7 VALLEJO CEDRIC MS4 2 ASPH TRIATHLON 1:36:35.80 3 01:44.3 0:11:28.1 2,6 28 00:58.1 0:57:50.0 23,9 4 0:24:35.1 13,4 20
4 146 LAURENT DAMIEN MS1 2 Waimea Triathlon Lunel 1:37:34.35 4 01:02.3 0:11:20.6 2,6 19 00:48.5 1:00:42.2 22,7 7 0:23:40.6 13,9 9
5 129 TERRASSON CEDRIC MS4 3 TRIATHLON CATALAN 1:39:18.81 5 01:10.4 0:11:21.9 2,6 20 00:46.9 1:00:43.4 22,7 8 0:25:16.0 13,1 26
6 123 MOUGNIBAS JEAN-CLAUDE MS3 1 TOULOUSE TRIATHLON 1:39:29.16 6 01:38.5 0:11:25.2 2,6 24 01:01.7 1:02:18.4 22,1 12 0:23:05.1 14,3 4
7 71 EGIZIANO THOMAS MV1 1 LOUPIAN TRI NATURE 1:40:19.69 7 01:26.8 0:10:13.8 2,9 8 00:56.7 1:04:30.3 21,4 20 0:23:11.8 14,2 5
8 79 BOYER THIERRY MV2 1 MAUGUIO CARNON TRIATHLON 1:40:34.69 8 01:30.9 0:11:44.5 2,6 46 00:56.5 1:02:20.8 22,1 13 0:24:01.8 13,7 11
9 42 CHAPEL NICOLAS MS4 4 FOULÉES SAUSSINOISES 1:41:19.52 9 02:14.1 0:14:58.1 2,0 222 01:08.9 0:58:00.6 23,8 5 0:24:57.6 13,2 22
10 132 NOTTE ROMAIN MS2 1 TRIATHLON NIMES 1:41:40.07 10 01:39.7 0:12:45.0 2,4 83 01:01.9 1:01:39.8 22,4 10 0:24:33.4 13,4 18
11 112 HARATYK ANTOINE MS3 2 Team Happymoov Sport 1:41:42.07 11 02:27.2 0:15:24.7 1,9 245 01:18.3 0:58:29.8 23,6 6 0:24:01.8 13,7 12
12 91 ROBLIN LÉO MS2 2 passy mont blanc triathlon 1:42:17.27 12 01:20.4 0:11:53.8 2,5 50 00:54.8 1:04:42.9 21,3 22 0:23:25.1 14,1 6
13 80 GUERIN JEAN CLAUDE MV1 2 MAUGUIO CARNON TRIATHLON 1:42:26.75 13 01:36.5 0:12:42.6 2,4 81 01:00.3 1:02:33.0 22,1 15 0:24:34.1 13,4 19
14 44 CARRON STEPHANE MV2 2 GUC TRIATHLON 1:42:50.29 14 01:22.7 0:11:29.5 2,6 31 01:11.5 1:03:21.3 21,8 18 0:25:25.1 13,0 27
15 68 LAFORME GABRIEL MS1 3 LOUPIAN TRI NATURE 1:44:52.27 15 01:48.7 0:13:05.8 2,3 105 01:16.2 1:04:57.7 21,2 23 0:23:43.6 13,9 10
16 21 COUTELET GILLES MS4 5 CASTRIES RUNNING CLUB 1:44:58.77 16 01:30.9 0:11:30.7 2,6 32 01:10.8 1:04:35.4 21,4 21 0:26:10.8 12,6 39
17 45 PIGNEDE PIERRE MS3 3 GUC TRIATHLON 1:45:13.68 17 01:43.1 0:11:42.6 2,6 45 01:05.6 1:05:27.5 21,1 25 0:25:14.6 13,1 24
18 26 SARNETTE FRANCK MS4 6 CAVAILLON TRIATHLON CLUB 1:45:47.76 18 01:43.6 0:11:27.7 2,6 26 01:04.0 1:02:51.7 22,0 17 0:28:40.4 11,5 97
19 142 AUFFRAY STÉPHANE MV1 3 VO2 TRIATHLON 1:46:12.76 19 00:54.0 0:14:35.5 2,1 193 01:05.1 1:02:49.1 22,0 16 0:26:14.9 12,6 40
20 2326 JURADO FLORIAN MS3 4   1:46:40.66 20 01:35.9 0:12:34.7 2,4 74 01:01.6 1:07:49.8 20,3 33 0:23:38.4 14,0 8
21 128 PARIS NICOLAS MS3 5 TRIATHLETE CLUB NARBONNAIS 1:46:55.51 21 01:07.1 0:12:08.7 2,5 55 01:15.0 1:05:38.0 21,0 26 0:26:46.5 12,3 48
22 97 BOURDON RAPHAEL MCA 1 ROC EVASION 1:49:04.60 22 01:37.4 0:14:49.6 2,0 210 01:19.7 1:02:25.6 22,1 14 0:28:52.1 11,4 100
23 64 ARCELLA LAURENT MV2 3 LOUPIAN TRI NATURE 1:49:33.21 23 01:20.7 0:11:37.0 2,6 41 01:26.2 1:05:13.6 21,2 24 0:29:55.4 11,0 151
24 25 VERDEREAU CHRISTOPHE MV1 4 CAVAILLON TRIATHLON CLUB 1:49:51.16 24 00:54.0 0:14:06.5 2,1 149 00:51.6 1:09:10.1 20,0 46 0:24:14.7 13,6 15
25 58 FERNANDEZ JEAN-CLAUDE MV1 5 LE ROC DE LA LEGUE 1:49:52.40 25 01:59.1 0:17:41.1 1,7 389 01:38.4 1:01:33.4 22,4 9 0:27:00.1 12,2 56
26 2321 ROQUES LUCAS MS3 6   1:49:53.96 26 03:15.4 0:20:03.3 1,5 466 02:41.0 0:52:20.5 26,4 2 0:31:33.6 10,5 205
27 23 DESBOIS GAYLORD MS3 7 CAVAILLON TRIATHLON CLUB 1:49:56.77 27 01:30.2 0:12:42.0 2,4 80 01:02.6 1:09:45.4 19,8 48 0:24:56.2 13,2 21
28 272 REYNAUD NICOLAS MS4 7   1:50:11.10 28 01:49.5 0:11:48.8 2,5 48 00:51.0 1:08:53.6 20,0 43 0:26:48.0 12,3 50
29 14 GUZZONATO PHILIPPE MV2 4 BRIVE LIMOUSIN TRIATHLON 1:50:19.95 29 01:11.3 0:16:53.3 1,8 353 01:03.7 1:04:02.3 21,5 19 0:27:09.2 12,2 61
30 341 LEBAS FABIEN MS4 8   1:50:30.57 30 01:47.6 0:12:09.2 2,5 56 01:17.3 1:08:45.4 20,1 42 0:26:30.8 12,4 45
31 114 PLANCHET JOËL MV1 6 TEAM MOUNTAIN BIKE SAINT AUNES 1:50:47.96 31 02:29.2 0:14:15.6 2,1 164 01:31.7 1:05:46.9 21,0 27 0:26:44.4 12,3 47
32 157 ASTIÉ ARNAUD MS2 3   1:51:11.45 32 02:11.3 0:11:28.6 2,6 29 01:35.5 1:08:23.2 20,2 38 0:27:32.7 12,0 69
33 99 GRANIER CYRIL MS3 8 RODEZ TRIATHLON 12 1:51:20.26 33 01:49.8 0:13:08.2 2,3 108 01:07.9 1:06:38.9 20,7 31 0:28:35.1 11,5 94
34 30 LACOMBE JULIEN MV2 5 CLES GARDANE TRIATHLON 1:51:29.65 34 02:23.0 0:11:34.9 2,6 39 01:13.4 1:08:33.0 20,1 39 0:27:45.1 11,9 74
35 219 GIGNOUX PAUL MS1 4   1:51:32.21 35 01:19.8 0:11:33.4 2,6 37 00:48.6 1:10:29.3 19,6 55 0:27:20.8 12,1 64
36 181 CASASSUS NICOLAS MS4 9   1:51:42.62 36 02:32.7 0:13:02.4 2,3 98 01:28.5 1:07:57.9 20,3 34 0:26:40.9 12,4 46
37 52 SIGROS BENJAMIN MS4 10 KERAUNOS SPORTS 1:51:46.50 37 02:29.3 0:14:13.5 2,1 161 01:40.4 1:06:29.1 20,8 30 0:26:54.0 12,3 53
38 55 DENNY ANTONIN MCA 2 LATITUDE VTT 1:52:06.01 38 02:37.9 0:12:52.1 2,3 86 01:12.0 1:06:19.5 20,8 29 0:29:04.3 11,4 106
39 460 LEBEGUE AURÉLIEN MCA 3   1:52:32.11 39 01:19.2 0:10:24.8 2,9 9 01:34.0 1:13:40.7 18,7 76 0:25:33.2 12,9 31
40 111 BRUNIE DAMIEN MS1 5 TAM 1:52:48.10 40 01:56.6 0:13:11.1 2,3 113 01:05.5 1:08:58.8 20,0 44 0:27:35.8 12,0 73
41 105 MARAVAL THOMAS MS3 9 Ski club brassac vtt 1:53:22.97 41 03:03.5 0:14:11.8 2,1 155 01:44.7 1:05:56.6 20,9 28 0:28:26.1 11,6 89
42 39 DEGREMONT GAETAN MS4 11 DIJON SINGLETRACK 1:53:56.53 42 00:53.0 0:14:27.9 2,1 181 01:16.5 1:08:42.6 20,1 41 0:28:05.3 11,7 81
43 582 CAMPANA LUDOVIC MS1 6 Aubagne Triathlon 1:54:21.59 43 01:29.8 0:11:00.5 2,7 14 01:14.1 1:10:50.4 19,5 57 0:29:46.6 11,1 141
44 81 REBIBANE YDRIS MS3 10 MILLES PATTES TRIATHLON 1:54:22.30 44 02:13.0 0:11:26.5 2,6 25 01:08.9 1:12:36.7 19,0 67 0:26:56.9 12,2 54
45 136 MICHELIER FRANCK MS1 7 TRIBIKE 34 1:54:39.02 45 02:32.8 0:12:38.1 2,4 78 01:54.3 1:08:34.8 20,1 40 0:28:58.7 11,4 102
46 153 ALPHONSINE MICKAËL MS2 4   1:54:56.22 46 04:47.7 0:13:29.9 2,2 127 02:22.0 1:10:07.8 19,7 51 0:24:08.6 13,7 14
47 60 MAS SÉBASTIEN MS4 12 LES CHAMEAUX BEZIERS TRIATHLON 1:54:57.01 47 01:34.1 0:15:04.3 2,0 227 01:32.9 1:07:05.4 20,6 32 0:29:40.1 11,1 136
48 85 RICHARD ERIC MV2 6 NAUTIC CLUB BRIANCON 1:55:24.47 48 01:57.5 0:14:12.5 2,1 156 01:39.3 1:10:07.3 19,7 50 0:27:27.6 12,0 67
49 245 MADASCHI CÉDRIC MS3 11   1:55:26.53 49 02:21.4 0:14:56.0 2,0 220 01:34.5 1:10:16.9 19,6 53 0:26:17.4 12,6 41
50 95 BOURDON CHRISTIAN MV2 7 ROC EVASION 1:55:37.10 50 01:52.5 0:13:17.4 2,3 118 01:29.4 1:08:09.8 20,2 36 0:30:47.7 10,7 183

Aucun commentaires pour le moment, donnez votre avis, vos impressions avant, pendant! et après la course

Déjà membre? Identifiez-vous pour commenter l'épreuve ou créer un compte